createdAt,value
2019-02-26T00:02:17.392Z,55.34
2019-02-26T00:04:46.238Z,55.40
2019-02-26T00:07:18.273Z,55.56
2019-02-26T00:09:46.894Z,55.69
2019-02-26T00:12:19.940Z,55.22
2019-02-26T00:14:49.991Z,55.70
2019-02-26T00:17:19.665Z,55.49
2019-02-26T00:19:49.999Z,55.46
2019-02-26T00:22:19.443Z,55.51
2019-02-26T00:24:48.925Z,55.47
2019-02-26T00:27:18.390Z,55.31
2019-02-26T00:29:49.191Z,55.42
2019-02-26T00:32:19.081Z,55.45
2019-02-26T00:34:48.565Z,55.46
2019-02-26T00:37:19.965Z,55.37
2019-02-26T00:39:49.692Z,55.29
2019-02-26T00:42:23.600Z,55.46
2019-02-26T00:44:55.338Z,55.37
2019-02-26T00:47:22.829Z,55.12
2019-02-26T00:49:53.469Z,55.23
2019-02-26T00:52:23.064Z,55.00
2019-02-26T00:54:53.613Z,55.24
2019-02-26T00:57:27.142Z,55.10
2019-02-26T00:59:55.003Z,55.30
2019-02-26T01:02:24.489Z,55.36
2019-02-26T01:04:53.949Z,55.29
2019-02-26T01:07:24.355Z,55.29
2019-02-26T01:09:55.217Z,55.41
2019-02-26T01:12:25.813Z,55.35
2019-02-26T01:14:55.346Z,55.43
2019-02-26T01:17:24.889Z,55.86
2019-02-26T01:19:56.392Z,56.25
2019-02-26T01:22:25.619Z,56.21
2019-02-26T01:24:56.365Z,56.74
2019-02-26T01:27:26.296Z,56.91
2019-02-26T01:29:55.931Z,56.92
2019-02-26T01:32:26.995Z,56.94
2019-02-26T01:34:56.448Z,56.92
2019-02-26T01:37:27.686Z,57.19
2019-02-26T01:39:57.148Z,57.63
2019-02-26T01:42:27.115Z,57.72
2019-02-26T01:44:57.892Z,57.80
2019-02-26T01:47:28.532Z,58.11
2019-02-26T01:49:59.409Z,58.05
2019-02-26T01:52:29.007Z,57.57
2019-02-26T01:55:00.271Z,57.62
2019-02-26T01:57:29.750Z,58.13
2019-02-26T01:59:59.211Z,58.21
2019-02-26T02:02:30.274Z,58.29
2019-02-26T02:05:02.131Z,58.61
2019-02-26T02:07:31.075Z,58.79
2019-02-26T02:10:02.744Z,58.71
2019-02-26T02:12:32.453Z,58.92
2019-02-26T02:15:03.035Z,58.39
2019-02-26T02:17:33.384Z,58.93
2019-02-26T02:20:07.690Z,59.02
2019-02-26T02:22:37.582Z,59.09
2019-02-26T02:25:08.759Z,59.21
2019-02-26T02:27:38.223Z,58.73
2019-02-26T02:30:22.456Z,59.21
2019-02-26T02:32:51.369Z,59.52
2019-02-26T02:35:19.629Z,59.70
2019-02-26T02:37:51.406Z,59.92
2019-02-26T02:40:20.562Z,59.96
2019-02-26T02:42:50.029Z,60.17
2019-02-26T02:45:21.083Z,59.87
2019-02-26T02:47:54.814Z,59.79
2019-02-26T02:50:22.073Z,60.33
2019-02-26T02:52:53.599Z,60.20
2019-02-26T02:55:22.744Z,60.18
2019-02-26T02:58:13.077Z,60.30
2019-02-26T03:00:42.779Z,59.74
2019-02-26T03:03:12.261Z,60.17
2019-02-26T03:05:43.799Z,59.51
2019-02-26T03:08:15.667Z,60.10
2019-02-26T03:10:45.074Z,60.03
2019-02-26T03:13:16.771Z,59.85
2019-02-26T03:15:47.513Z,59.47
2019-02-26T03:18:16.992Z,59.29
2019-02-26T03:20:46.494Z,59.13
2019-02-26T03:23:19.625Z,59.20
2019-02-26T03:25:47.853Z,59.37
2019-02-26T03:28:18.348Z,60.08
2019-02-26T03:30:47.844Z,60.28
2019-02-26T03:33:17.316Z,59.83
2019-02-26T03:35:46.817Z,59.66
2019-02-26T03:38:18.151Z,59.78
2019-02-26T03:40:49.261Z,59.83
2019-02-26T03:43:18.827Z,60.05
2019-02-26T03:45:48.314Z,60.45
2019-02-26T03:48:20.291Z,61.00
2019-02-26T03:50:49.006Z,60.82
2019-02-26T03:53:18.462Z,60.43
2019-02-26T03:55:48.509Z,60.32
2019-02-26T03:58:18.057Z,60.54
2019-02-26T04:00:47.604Z,60.60
2019-02-26T04:03:17.621Z,61.00
2019-02-26T04:05:47.300Z,60.42
2019-02-26T04:08:19.021Z,60.33
2019-02-26T04:10:49.950Z,60.71
2019-02-26T04:13:19.171Z,61.20
2019-02-26T04:15:51.355Z,61.08
2019-02-26T04:18:19.842Z,60.96
2019-02-26T04:20:49.333Z,61.02
2019-02-26T04:23:20.030Z,61.48
2019-02-26T04:26:06.396Z,61.46
2019-02-26T04:28:57.992Z,61.60
2019-02-26T04:32:04.604Z,61.62
2019-02-26T04:34:44.758Z,62.05
2019-02-26T04:37:38.544Z,62.04
2019-02-26T04:40:45.680Z,62.08
2019-02-26T04:43:39.118Z,61.53
2019-02-26T04:46:34.331Z,61.65
2019-02-26T04:49:02.924Z,61.69
2019-02-26T04:51:36.097Z,61.73
2019-02-26T04:54:03.687Z,62.55
2019-02-26T04:56:36.031Z,62.04
2019-02-26T04:59:06.241Z,61.55
2019-02-26T05:01:35.628Z,61.93
2019-02-26T05:04:05.363Z,61.93
2019-02-26T05:06:34.856Z,61.89
2019-02-26T05:09:07.534Z,62.38
2019-02-26T05:11:40.341Z,62.32
2019-02-26T05:14:09.121Z,62.65
2019-02-26T05:16:40.374Z,62.30
2019-02-26T05:19:10.638Z,62.13
2019-02-26T05:21:41.272Z,62.45
2019-02-26T05:24:13.066Z,62.23
2019-02-26T05:26:42.023Z,62.73
2019-02-26T05:29:13.411Z,62.83
2019-02-26T05:31:43.258Z,62.97
2019-02-26T05:34:15.154Z,62.94
2019-02-26T05:36:46.192Z,62.98
2019-02-26T05:39:18.064Z,63.25
2019-02-26T05:41:46.453Z,63.06
2019-02-26T05:44:15.938Z,62.91
2019-02-26T05:46:47.577Z,62.57
2019-02-26T05:49:19.520Z,62.75
2019-02-26T05:51:48.419Z,62.84
2019-02-26T05:54:21.385Z,62.64
2019-02-26T05:56:49.946Z,62.60
2019-02-26T05:59:21.807Z,62.38
2019-02-26T06:01:54.808Z,62.98
2019-02-26T06:04:21.974Z,63.12
2019-02-26T06:06:55.570Z,63.12
2019-02-26T06:09:25.488Z,63.00
2019-02-26T06:11:53.874Z,63.24
2019-02-26T06:14:25.483Z,63.09
2019-02-26T06:16:55.771Z,63.08
2019-02-26T06:19:44.736Z,62.67
2019-02-26T06:22:17.042Z,62.61
2019-02-26T06:24:44.794Z,62.83
2019-02-26T06:27:16.624Z,63.07
2019-02-26T06:29:45.643Z,63.07
2019-02-26T06:32:19.479Z,63.07
2019-02-26T06:34:48.974Z,63.06
2019-02-26T06:37:42.343Z,63.01
2019-02-26T06:40:17.524Z,62.60
2019-02-26T06:42:47.151Z,62.74
2019-02-26T06:45:17.037Z,62.93
2019-02-26T06:47:48.699Z,62.83
2019-02-26T06:50:18.909Z,62.47
2019-02-26T06:52:50.762Z,62.83
2019-02-26T06:55:19.986Z,62.90
2019-02-26T06:57:50.639Z,62.72
2019-02-26T07:00:22.278Z,62.51
2019-02-26T07:02:51.871Z,62.29
2019-02-26T07:05:23.900Z,62.27
2019-02-26T07:07:54.461Z,62.48
2019-02-26T07:10:26.228Z,62.33
2019-02-26T07:12:54.950Z,62.06
2019-02-26T07:15:24.427Z,62.29
2019-02-26T07:17:53.976Z,62.01
2019-02-26T07:20:23.437Z,62.06
2019-02-26T07:22:52.923Z,62.26
2019-02-26T07:25:22.373Z,62.19
2019-02-26T07:27:53.610Z,61.87
2019-02-26T07:30:23.053Z,61.65
2019-02-26T07:32:52.530Z,61.95
2019-02-26T07:35:22.038Z,61.99
2019-02-26T07:37:52.302Z,61.66
2019-02-26T07:40:22.682Z,61.47
2019-02-26T07:42:52.140Z,61.31
2019-02-26T07:45:22.861Z,61.27
2019-02-26T07:47:54.048Z,61.32
2019-02-26T07:50:24.104Z,61.30
2019-02-26T07:52:55.139Z,61.15
2019-02-26T07:55:24.826Z,60.86
2019-02-26T07:57:54.353Z,60.87
2019-02-26T08:00:25.091Z,60.66
2019-02-26T08:02:56.969Z,60.68
2019-02-26T08:05:28.669Z,60.66
2019-02-26T08:07:57.025Z,60.60
2019-02-26T08:10:26.557Z,60.82
2019-02-26T08:12:56.714Z,60.87
2019-02-26T08:15:27.786Z,60.16
2019-02-26T08:18:00.384Z,59.96
2019-02-26T08:20:30.454Z,59.94
2019-02-26T08:23:01.363Z,59.83
2019-02-26T08:25:30.965Z,59.99
2019-02-26T08:28:01.244Z,60.07
2019-02-26T08:30:30.997Z,59.26
2019-02-26T08:33:04.334Z,59.10
2019-02-26T08:35:31.802Z,58.95
2019-02-26T08:38:01.266Z,59.69
2019-02-26T08:40:30.758Z,59.52
2019-02-26T08:43:00.210Z,59.24
2019-02-26T08:45:31.013Z,58.99
2019-02-26T08:48:00.723Z,59.19
2019-02-26T08:50:33.098Z,58.55
2019-02-26T08:53:01.544Z,58.51
2019-02-26T08:55:31.017Z,58.64
2019-02-26T08:58:00.560Z,58.61
2019-02-26T09:00:30.207Z,58.08
2019-02-26T09:02:59.653Z,58.19
2019-02-26T09:05:31.715Z,57.76
2019-02-26T09:08:00.361Z,57.55
2019-02-26T09:10:29.838Z,57.12
2019-02-26T09:12:59.330Z,56.81
2019-02-26T09:15:28.956Z,56.92
2019-02-26T09:18:00.183Z,56.07
2019-02-26T09:20:29.680Z,55.19
2019-02-26T09:23:01.386Z,54.96
2019-02-26T09:25:31.555Z,54.97
2019-02-26T09:28:01.729Z,54.48
2019-02-26T09:30:33.404Z,54.34
2019-02-26T09:33:03.399Z,53.83
2019-02-26T09:35:33.628Z,53.55
2019-02-26T09:38:03.122Z,53.16
2019-02-26T09:40:34.425Z,52.74
2019-02-26T09:43:06.042Z,51.91
2019-02-26T09:45:35.258Z,51.46
2019-02-26T09:48:04.803Z,50.87
2019-02-26T09:50:36.094Z,50.23
2019-02-26T09:53:05.626Z,49.60
2019-02-26T09:55:35.132Z,48.95
2019-02-26T09:58:04.589Z,48.32
2019-02-26T10:00:34.157Z,48.86
2019-02-26T10:03:07.459Z,48.57
2019-02-26T10:05:34.872Z,47.40
2019-02-26T10:08:05.351Z,47.88
2019-02-26T10:10:39.195Z,46.50
2019-02-26T10:13:06.183Z,46.68
2019-02-26T10:15:39.302Z,46.49
2019-02-26T10:18:09.340Z,45.93
2019-02-26T10:20:38.143Z,46.17
2019-02-26T10:23:07.714Z,45.47
2019-02-26T10:25:38.804Z,45.23
2019-02-26T10:28:11.403Z,45.37
2019-02-26T10:30:41.675Z,44.39
2019-02-26T10:33:12.439Z,45.40
2019-02-26T10:35:44.903Z,44.03
2019-02-26T10:38:13.122Z,44.11
2019-02-26T10:40:53.361Z,43.55
2019-02-26T10:43:13.805Z,42.79
2019-02-26T10:45:44.823Z,42.99
2019-02-26T10:48:16.803Z,41.49
2019-02-26T10:50:49.115Z,41.57
2019-02-26T10:53:19.824Z,41.76
2019-02-26T10:55:48.328Z,40.55
2019-02-26T10:58:17.795Z,40.06
2019-02-26T11:00:50.588Z,39.96
2019-02-26T11:03:20.337Z,39.31
2019-02-26T11:05:52.202Z,39.76
2019-02-26T11:08:23.648Z,38.27
2019-02-26T11:10:52.568Z,38.95
2019-02-26T11:13:24.855Z,38.08
2019-02-26T11:15:54.399Z,37.38
2019-02-26T11:18:29.100Z,36.91
2019-02-26T11:20:59.354Z,37.05
2019-02-26T11:23:31.241Z,37.13
2019-02-26T11:26:00.199Z,36.87
2019-02-26T11:28:32.633Z,36.74
2019-02-26T11:31:00.910Z,36.05
2019-02-26T11:33:30.596Z,34.98
2019-02-26T11:36:00.053Z,34.82
2019-02-26T11:38:29.566Z,34.84
2019-02-26T11:40:59.091Z,34.13
2019-02-26T11:43:29.029Z,35.02
2019-02-26T11:45:59.092Z,33.88
2019-02-26T11:48:32.705Z,33.85
2019-02-26T11:51:01.486Z,34.57
2019-02-26T11:53:31.079Z,35.01
2019-02-26T11:56:02.040Z,33.86
2019-02-26T11:58:32.218Z,35.47
2019-02-26T12:01:02.466Z,33.44
2019-02-26T12:03:34.088Z,33.44
2019-02-26T12:06:03.283Z,33.61
2019-02-26T12:08:32.793Z,33.62
2019-02-26T12:11:03.971Z,33.38
2019-02-26T12:13:33.585Z,33.31
2019-02-26T12:16:22.424Z,32.71
2019-02-26T12:19:11.299Z,32.33
2019-02-26T12:22:01.304Z,32.19
2019-02-26T12:24:55.741Z,31.94
2019-02-26T12:27:43.247Z,31.87
2019-02-26T12:30:32.302Z,31.37
2019-02-26T12:33:22.480Z,31.69
2019-02-26T12:42:03.316Z,31.40
2019-02-26T12:44:52.189Z,31.92
2019-02-26T12:47:42.892Z,31.00
2019-02-26T12:50:36.030Z,31.51
2019-02-26T12:53:23.622Z,31.50
2019-02-26T12:56:13.293Z,32.29
2019-02-26T12:59:02.144Z,31.94
2019-02-26T13:01:51.848Z,30.79
2019-02-26T13:04:44.160Z,31.38
2019-02-26T13:07:32.260Z,30.25
2019-02-26T13:10:15.206Z,30.99
2019-02-26T13:13:00.178Z,31.25
2019-02-26T13:15:48.871Z,30.51
2019-02-26T13:18:37.670Z,31.73
2019-02-26T13:21:26.484Z,31.51
2019-02-26T13:24:17.746Z,30.39
2019-02-26T13:27:05.972Z,32.03
2019-02-26T13:29:57.122Z,30.61
2019-02-26T13:33:04.775Z,30.84
2019-02-26T13:35:35.914Z,30.02
2019-02-26T13:38:33.711Z,29.69
2019-02-26T13:41:28.948Z,29.84
2019-02-26T13:44:06.052Z,29.53
2019-02-26T13:46:54.988Z,30.48
2019-02-26T13:49:43.834Z,29.98
2019-02-26T13:52:32.675Z,30.23
2019-02-26T13:55:21.594Z,29.56
2019-02-26T13:58:11.943Z,29.34
2019-02-26T14:01:01.120Z,29.83
2019-02-26T14:03:50.031Z,30.18
2019-02-26T14:06:39.037Z,29.02
2019-02-26T14:09:28.743Z,29.22
2019-02-26T14:12:11.182Z,28.87
2019-02-26T14:15:00.176Z,28.86
2019-02-26T14:17:49.242Z,29.79
2019-02-26T14:20:38.171Z,29.42
2019-02-26T14:23:07.758Z,28.46
2019-02-26T14:25:56.573Z,27.81
2019-02-26T14:28:45.435Z,28.74
2019-02-26T14:31:34.304Z,28.45
2019-02-26T14:34:23.169Z,29.06
2019-02-26T14:37:12.547Z,28.38
2019-02-26T14:39:42.308Z,28.11
2019-02-26T14:42:14.868Z,29.02
2019-02-26T14:44:44.513Z,28.17
2019-02-26T14:47:14.292Z,29.28
2019-02-26T14:49:43.984Z,28.09
2019-02-26T14:52:13.793Z,28.28
2019-02-26T14:54:43.488Z,28.67
2019-02-26T14:57:13.746Z,28.43
2019-02-26T14:59:43.441Z,29.44
2019-02-26T15:02:13.123Z,29.46
2019-02-26T15:04:42.766Z,28.46
2019-02-26T15:07:12.581Z,29.35
2019-02-26T15:09:42.481Z,29.68
2019-02-26T15:12:12.245Z,29.24
2019-02-26T15:14:41.909Z,27.93
2019-02-26T15:17:11.601Z,28.81
2019-02-26T15:19:49.410Z,28.40
2019-02-26T15:22:14.823Z,28.07
2019-02-26T15:24:44.394Z,27.90
2019-02-26T15:27:14.012Z,28.05
2019-02-26T15:29:43.798Z,28.63
2019-02-26T15:32:13.442Z,27.86
2019-02-26T15:34:43.026Z,28.78
2019-02-26T15:37:12.653Z,28.71
2019-02-26T15:39:42.296Z,28.91
2019-02-26T15:42:12.156Z,28.88
2019-02-26T15:44:41.732Z,30.46
2019-02-26T15:47:11.353Z,29.19
2019-02-26T15:49:41.981Z,28.65
2019-02-26T15:52:11.621Z,29.01
2019-02-26T15:54:41.260Z,29.04
2019-02-26T15:57:10.880Z,29.70
2019-02-26T15:59:40.623Z,28.85
2019-02-26T16:02:10.285Z,29.40
2019-02-26T16:04:39.907Z,29.06
2019-02-26T16:07:09.484Z,29.21
2019-02-26T16:09:39.043Z,29.41
2019-02-26T16:12:08.650Z,29.37
2019-02-26T16:14:38.618Z,29.78
2019-02-26T16:17:08.584Z,29.83
2019-02-26T16:19:38.250Z,30.23
2019-02-26T16:22:08.380Z,30.19
2019-02-26T16:24:38.121Z,30.22
2019-02-26T16:27:08.226Z,30.11
2019-02-26T16:29:37.836Z,30.56
2019-02-26T16:32:07.446Z,31.59
2019-02-26T16:34:37.082Z,31.95
2019-02-26T16:37:07.823Z,32.80
2019-02-26T16:39:37.638Z,33.66
2019-02-26T16:42:07.345Z,32.98
2019-02-26T16:44:37.082Z,33.96
2019-02-26T16:47:06.954Z,33.95
2019-02-26T16:49:36.698Z,34.63
2019-02-26T16:52:06.699Z,35.38
2019-02-26T16:54:38.659Z,36.47
2019-02-26T16:57:07.777Z,36.70
2019-02-26T16:59:38.548Z,37.30
2019-02-26T17:02:08.828Z,38.04
2019-02-26T17:04:40.690Z,37.84
2019-02-26T17:07:09.826Z,38.91
2019-02-26T17:09:39.739Z,38.85
2019-02-26T17:12:09.455Z,39.30
2019-02-26T17:14:39.149Z,39.52
2019-02-26T17:17:08.720Z,40.23
2019-02-26T17:19:38.376Z,39.96
2019-02-26T17:22:08.060Z,40.42
2019-02-26T17:24:37.753Z,40.77
2019-02-26T17:27:07.558Z,41.05
2019-02-26T17:29:37.323Z,41.36
2019-02-26T17:32:07.008Z,41.48
2019-02-26T17:34:36.690Z,42.04
2019-02-26T17:37:21.564Z,42.18
2019-02-26T17:39:57.500Z,42.34
2019-02-26T17:42:27.086Z,42.82
2019-02-26T17:44:56.808Z,43.10
2019-02-26T17:47:26.587Z,43.37
2019-02-26T17:50:01.111Z,43.85
2019-02-26T17:52:30.749Z,43.63
2019-02-26T17:55:00.409Z,43.73
2019-02-26T17:57:31.983Z,43.87
2019-02-26T18:00:01.623Z,44.21
2019-02-26T18:02:31.250Z,44.68
2019-02-26T18:05:01.733Z,45.45
2019-02-26T18:07:31.599Z,45.28
2019-02-26T18:10:01.332Z,45.90
2019-02-26T18:12:31.078Z,45.79
2019-02-26T18:15:00.677Z,45.94
2019-02-26T18:17:30.288Z,45.81
2019-02-26T18:19:59.886Z,45.91
2019-02-26T18:22:29.583Z,46.23
2019-02-26T18:24:59.296Z,46.12
2019-02-26T18:27:30.486Z,46.39
2019-02-26T18:30:00.828Z,46.80
2019-02-26T18:32:30.545Z,46.83
2019-02-26T18:35:00.226Z,46.70
2019-02-26T18:37:29.864Z,47.31
2019-02-26T18:39:59.560Z,47.59
2019-02-26T18:42:29.165Z,47.14
2019-02-26T18:44:58.922Z,48.14
2019-02-26T18:47:28.700Z,48.06
2019-02-26T18:49:58.372Z,48.25
2019-02-26T18:52:27.984Z,48.44
2019-02-26T18:54:57.685Z,49.00
2019-02-26T18:57:27.440Z,49.11
2019-02-26T18:59:57.242Z,49.40
2019-02-26T19:02:26.894Z,49.15
2019-02-26T19:04:56.663Z,49.78
2019-02-26T19:07:26.381Z,49.88
2019-02-26T19:09:55.991Z,49.83
2019-02-26T19:12:25.622Z,49.93
2019-02-26T19:14:55.439Z,49.91
2019-02-26T19:17:26.747Z,50.33
2019-02-26T19:19:56.544Z,50.11
2019-02-26T19:22:27.346Z,50.35
2019-02-26T19:24:56.977Z,50.76
2019-02-26T19:27:26.814Z,50.62
2019-02-26T19:29:56.613Z,50.80
2019-02-26T19:32:26.333Z,50.52
2019-02-26T19:34:58.739Z,50.70
2019-02-26T19:37:28.995Z,51.05
2019-02-26T19:39:58.740Z,51.21
2019-02-26T19:42:28.625Z,51.01
2019-02-26T19:44:58.452Z,51.13
2019-02-26T19:47:28.173Z,51.39
2019-02-26T19:49:58.694Z,51.37
2019-02-26T19:52:28.520Z,51.48
2019-02-26T19:54:58.256Z,51.80
2019-02-26T19:57:30.220Z,51.60
2019-02-26T20:00:00.868Z,51.43
2019-02-26T20:02:31.685Z,51.54
2019-02-26T20:05:01.945Z,51.67
2019-02-26T20:07:49.378Z,51.57
2019-02-26T20:10:19.554Z,51.58
2019-02-26T20:12:49.376Z,52.16
2019-02-26T20:15:21.677Z,52.05
2019-02-26T20:17:50.492Z,51.95
2019-02-26T20:20:22.097Z,52.20
2019-02-26T20:22:51.861Z,51.84
2019-02-26T20:25:23.496Z,52.27
2019-02-26T20:27:54.853Z,51.86
2019-02-26T20:30:25.586Z,51.74
2019-02-26T20:32:55.428Z,51.82
2019-02-26T20:35:25.262Z,51.63
2019-02-26T20:37:58.589Z,51.68
2019-02-26T20:40:26.877Z,51.82
2019-02-26T20:42:56.334Z,51.35
2019-02-26T20:45:26.113Z,51.54
2019-02-26T20:47:55.665Z,52.08
2019-02-26T20:50:25.134Z,51.62
2019-02-26T20:52:54.650Z,51.45
2019-02-26T20:55:27.673Z,51.48
2019-02-26T20:57:57.155Z,51.61
2019-02-26T21:00:26.733Z,51.49
2019-02-26T21:02:56.238Z,51.54
2019-02-26T21:05:25.821Z,51.19
2019-02-26T21:07:58.007Z,51.53
2019-02-26T21:10:26.622Z,51.51
2019-02-26T21:12:56.185Z,51.54
2019-02-26T21:15:26.375Z,51.70
2019-02-26T21:17:58.059Z,52.01
2019-02-26T21:20:27.103Z,51.85
2019-02-26T21:22:56.578Z,51.75
2019-02-26T21:25:26.091Z,51.68
2019-02-26T21:27:55.587Z,51.77
2019-02-26T21:30:25.753Z,51.85
2019-02-26T21:32:57.770Z,51.72
2019-02-26T21:35:26.482Z,52.05
2019-02-26T21:38:15.356Z,51.90
2019-02-26T21:40:48.823Z,51.93
2019-02-26T21:43:16.220Z,51.98
2019-02-26T21:45:49.161Z,51.78
2019-02-26T21:48:16.929Z,52.10
2019-02-26T21:50:46.490Z,52.33
2019-02-26T21:53:16.471Z,52.28
2019-02-26T21:55:46.015Z,52.54
2019-02-26T21:58:15.528Z,52.29
2019-02-26T22:00:45.012Z,52.78
2019-02-26T22:03:14.558Z,52.24
2019-02-26T22:06:05.583Z,52.67
2019-02-26T22:08:34.683Z,52.75
2019-02-26T22:11:04.150Z,52.81
2019-02-26T22:13:33.598Z,52.71
2019-02-26T22:16:03.110Z,52.60
2019-02-26T22:18:34.272Z,52.52
2019-02-26T22:21:03.879Z,52.85
2019-02-26T22:23:34.258Z,52.46
2019-02-26T22:26:04.393Z,52.33
2019-02-26T22:28:33.885Z,52.43
2019-02-26T22:31:03.357Z,52.45
2019-02-26T22:33:32.875Z,52.59
2019-02-26T22:36:02.352Z,52.77
2019-02-26T22:38:31.848Z,53.05
2019-02-26T22:41:02.340Z,52.70
2019-02-26T22:43:32.482Z,52.88
2019-02-26T22:46:02.019Z,53.30
2019-02-26T22:48:31.539Z,53.01
2019-02-26T22:51:01.078Z,52.91
2019-02-26T22:53:30.549Z,53.00
2019-02-26T22:56:00.119Z,53.03
2019-02-26T22:58:29.650Z,53.38
2019-02-26T23:01:19.946Z,53.41
2019-02-26T23:03:49.579Z,53.60
2019-02-26T23:06:19.039Z,53.53
2019-02-26T23:08:48.523Z,53.62
2019-02-26T23:11:37.632Z,53.74
2019-02-26T23:14:07.741Z,54.02
2019-02-26T23:16:37.474Z,54.01
2019-02-26T23:19:07.310Z,54.19
2019-02-26T23:21:37.626Z,54.46
2019-02-26T23:24:07.366Z,54.23
2019-02-26T23:26:41.654Z,54.06
2019-02-26T23:29:08.952Z,54.24
2019-02-26T23:31:38.594Z,54.57
2019-02-26T23:34:08.084Z,54.62
2019-02-26T23:36:37.729Z,54.82
2019-02-26T23:39:08.073Z,54.83
2019-02-26T23:41:37.634Z,55.13
2019-02-26T23:44:07.345Z,55.07
2019-02-26T23:46:36.998Z,55.13
2019-02-26T23:49:06.554Z,55.23
2019-02-26T23:51:36.015Z,55.20
2019-02-26T23:54:07.311Z,55.06
2019-02-26T23:56:36.845Z,54.89
2019-02-26T23:59:06.319Z,55.02
